Time;durP1;ratioP1;P1;durP2;ratioP2;P2;SDS_P1;SDS_P2;PMS_P1;PMS_P2;Temp;Humidity;BMP_temperature;BMP_pressure;BME280_temperature;BME280_humidity;BME280_pressure;Samples;Min_cycle;Max_cycle;Signal;HPM_P1;HPM_P2
2022/03/04 00:20:14;;;;;;;;;;;77.50;1561.60;;;;;;6249203;22;19899;-90
2022/03/04 08:02:18;;;;;;;;;;;128.50;1817.60;;;;;;6238935;22;19938;-92
2022/03/04 08:04:46;;;;;;;;;;;128.80;1766.40;;;;;;6193633;23;20237;-90
2022/03/04 08:09:59;;;;;;;;;;;153.60;1817.60;;;;;;6246200;22;19920;-92
2022/03/04 08:12:25;;;;;;;;;;;153.80;1740.80;;;;;;6221909;23;19899;-91
2022/03/04 08:14:51;;;;;;;;;;;154.10;1715.20;;;;;;6222137;23;19905;-92
2022/03/04 08:17:17;;;;;;;;;;;154.20;1664.00;;;;;;6222292;23;19945;-93
2022/03/04 08:19:43;;;;;;;;;;;179.20;1664.00;;;;;;6221557;23;19974;-92
2022/03/04 08:22:09;;;;;;;;;;;179.30;1638.40;;;;;;6222491;23;19911;-93
2022/03/04 08:24:35;;;;;;;;;;;179.60;1638.40;;;;;;6222462;23;19900;-94
2022/03/04 08:27:00;;;;;;;;;;;179.90;1638.40;;;;;;6221679;23;20290;-93
2022/03/04 08:29:26;;;;;;;;;;;204.80;1587.20;;;;;;6221969;23;19899;-92
2022/03/04 08:31:52;;;;;;;;;;;205.10;1561.60;;;;;;6221778;23;19953;-92
2022/03/04 08:34:18;;;;;;;;;;;205.20;1561.60;;;;;;6221811;23;19899;-94
2022/03/04 08:36:44;;;;;;;;;;;;;;;;;;6221621;23;20333;-92
2022/03/04 08:39:09;;;;;;;;;;;281.60;1382.40;;;;;;6222067;23;20228;-91
2022/03/04 08:41:35;;;;;;;;;;;;;;;;;;6221692;23;19934;-92
2022/03/04 08:44:01;;;;;;;;;;;358.70;1177.60;;;;;;6222001;23;19900;-88
2022/03/04 08:46:27;;;;;;;;;;;384.60;1100.80;;;;;;6221776;23;19899;-87
2022/03/04 08:48:53;;;;;;;;;;;;;;;;;;6222024;23;19950;-89
2022/03/04 08:51:24;;;;;;;;;;;;;;;;;;6221725;23;19925;-88
2022/03/04 08:53:51;;;;;;;;;;;460.80;998.40;;;;;;6222009;23;19977;-86
2022/03/04 08:56:17;;;;;;;;;;;486.40;972.80;;;;;;6221512;23;20224;-91
2022/03/04 08:58:43;;;;;;;;;;;487.20;896.00;;;;;;6221406;23;19927;-87
2022/03/04 09:01:08;;;;;;;;;;;512.10;870.40;;;;;;6221728;23;19966;-88
2022/03/04 09:03:34;;;;;;;;;;;537.90;844.80;;;;;;6221471;23;20268;-85
2022/03/04 09:06:00;;;;;;;;;;;538.00;844.80;;;;;;6221334;23;20317;-88
2022/03/04 09:08:26;;;;;;;;;;;563.40;844.80;;;;;;6221176;23;19958;-91
2022/03/04 09:10:51;;;;;;;;;;;564.00;819.20;;;;;;6221451;23;19900;-87
2022/03/04 09:13:17;;;;;;;;;;;588.90;793.60;;;;;;6221474;23;20276;-88
2022/03/04 09:15:43;;;;;;;;;;;589.60;768.00;;;;;;6221669;23;19900;-90
2022/03/04 09:18:08;;;;;;;;;;;614.70;742.40;;;;;;6221643;23;19903;-90
2022/03/04 09:20:34;;;;;;;;;;;615.30;742.40;;;;;;6221082;23;19899;-93
2022/03/04 09:23:00;;;;;;;;;;;640.20;716.80;;;;;;6219859;23;19982;-91
2022/03/04 09:25:27;;;;;;;;;;;640.50;716.80;;;;;;6221030;23;19899;-91
2022/03/04 09:27:52;;;;;;;;;;;640.70;691.20;;;;;;6220800;23;19982;-90
2022/03/04 09:30:18;;;;;;;;;;;665.90;691.20;;;;;;6220803;23;19904;-90
2022/03/04 09:32:44;;;;;;;;;;;666.40;665.60;;;;;;6220898;23;20198;-91
2022/03/04 09:35:10;;;;;;;;;;;691.70;665.60;;;;;;6220522;23;20296;-91
2022/03/04 09:37:36;;;;;;;;;;;691.70;640.00;;;;;;6220727;23;19980;-87
2022/03/04 09:40:03;;;;;;;;;;;716.80;665.60;;;;;;6221106;23;19907;-91
2022/03/04 09:42:29;;;;;;;;;;;691.70;665.60;;;;;;6220598;23;19910;-91
2022/03/04 09:44:55;;;;;;;;;;;717.00;665.60;;;;;;6217927;23;19906;-90
2022/03/04 09:47:21;;;;;;;;;;;742.40;640.00;;;;;;6219722;23;19911;-90
2022/03/04 09:49:48;;;;;;;;;;;742.50;640.00;;;;;;6220953;23;19921;-88
2022/03/04 09:52:14;;;;;;;;;;;742.60;640.00;;;;;;6220436;23;19914;-88
2022/03/04 09:54:39;;;;;;;;;;;743.10;614.40;;;;;;6220384;23;19927;-89
2022/03/04 09:57:05;;;;;;;;;;;665.70;665.60;;;;;;6219549;23;19900;-89
2022/03/04 09:59:31;;;;;;;;;;;588.80;742.40;;;;;;6218969;23;19899;-89
2022/03/04 10:01:58;;;;;;;;;;;537.90;896.00;;;;;;6220175;23;20302;-88
2022/03/04 10:04:27;;;;;;;;;;;640.20;716.80;;;;;;6219813;23;19900;-90
2022/03/04 10:06:53;;;;;;;;;;;589.60;742.40;;;;;;6219763;23;20379;-89
2022/03/04 10:09:35;;;;;;;;;;;537.90;819.20;;;;;;6199041;23;19920;-90
2022/03/04 10:12:01;;;;;;;;;;;486.50;896.00;;;;;;6189805;23;19900;-90
2022/03/04 10:14:27;;;;;;;;;;;486.40;947.20;;;;;;6190514;23;19900;-90
2022/03/04 10:16:55;;;;;;;;;;;538.20;819.20;;;;;;6191575;23;19900;-90
2022/03/04 10:19:23;;;;;;;;;;;614.70;716.80;;;;;;6191791;23;19982;-88
2022/03/04 10:21:49;;;;;;;;;;;;;;;;;;6191048;23;19908;-88
2022/03/04 10:24:15;;;;;;;;;;;486.70;921.60;;;;;;6191698;23;19904;-89
2022/03/04 10:26:41;;;;;;;;;;;;;;;;;;6191182;23;20322;-87
2022/03/04 10:29:23;;;;;;;;;;;435.20;972.80;;;;;;6191653;23;19900;-90
2022/03/04 10:31:51;;;;;;;;;;;;;;;;;;6191554;23;19908;-88
2022/03/04 10:34:16;;;;;;;;;;;384.10;1024.00;;;;;;6192021;23;19930;-89
2022/03/04 10:36:52;;;;;;;;;;;358.90;1075.20;;;;;;6191434;23;20217;-89
2022/03/04 10:39:18;;;;;;;;;;;358.40;1126.40;;;;;;6191817;23;19904;-90
2022/03/04 10:41:49;;;;;;;;;;;333.20;1177.60;;;;;;6191622;23;19900;-89
2022/03/04 10:44:24;;;;;;;;;;;333.00;1203.20;;;;;;6191319;23;20226;-90
2022/03/04 10:46:50;;;;;;;;;;;;;;;;;;6191099;23;19919;-90
2022/03/04 10:49:16;;;;;;;;;;;;;;;;;;6190613;23;19904;-91
2022/03/04 10:51:43;;;;;;;;;;;;;;;;;;6191165;23;19900;-95
2022/03/04 10:54:09;;;;;;;;;;;;;;;;;;6191043;23;19942;-89
2022/03/04 10:56:35;;;;;;;;;;;;;;;;;;6191374;23;19900;-87
2022/03/04 10:59:01;;;;;;;;;;;;;;;;;;6190715;23;19900;-89
2022/03/04 11:01:27;;;;;;;;;;;;;;;;;;6191091;23;19900;-91
2022/03/04 11:03:53;;;;;;;;;;;;;;;;;;6192225;23;20369;-91
2022/03/04 11:06:19;;;;;;;;;;;;;;;;;;6192308;23;19926;-87
2022/03/04 11:08:45;;;;;;;;;;;;;;;;;;6204735;23;20321;-88
2022/03/04 11:11:11;;;;;;;;;;;;;;;;;;6221998;23;20296;-90
2022/03/04 11:13:37;;;;;;;;;;;;;;;;;;6222224;23;19907;-87
2022/03/04 11:16:03;;;;;;;;;;;;;;;;;;6222367;23;20220;-87
2022/03/04 11:18:29;;;;;;;;;;;;;;;;;;6222309;23;19904;-88
2022/03/04 11:20:55;;;;;;;;;;;;;;;;;;6222330;23;19903;-92
2022/03/04 11:23:21;;;;;;;;;;;;;;;;;;6221918;23;19906;-89
2022/03/04 11:25:47;;;;;;;;;;;;;;;;;;6222109;23;19895;-91
2022/03/04 11:28:13;;;;;;;;;;;;;;;;;;6221855;23;19940;-85
2022/03/04 11:30:39;;;;;;;;;;;;;;;;;;6217133;23;19982;-85
2022/03/04 11:33:05;;;;;;;;;;;;;;;;;;6248110;23;19966;-85
2022/03/04 11:35:31;;;;;;;;;;;;;;;;;;6220582;23;19922;-85
2022/03/04 11:37:57;;;;;;;;;;;;;;;;;;6220888;23;19922;-85
2022/03/04 11:40:33;;;;;;;;;;;;;;;;;;6221287;23;20331;-84
2022/03/04 11:42:58;;;;;;;;;;;256.40;1459.20;;;;;;6220934;23;19904;-85
2022/03/04 11:45:34;;;;;;;;;;;256.20;1510.40;;;;;;6220686;23;19910;-86
2022/03/04 11:48:05;;;;;;;;;;;231.30;1536.00;;;;;;6220898;23;19915;-87
2022/03/04 11:50:30;;;;;;;;;;;;;;;;;;6220832;23;19978;-88
2022/03/04 11:53:15;;;;;;;;;;;231.00;1561.60;;;;;;6220665;23;19919;-87
2022/03/04 11:56:01;;;;;;;;;;;230.70;1561.60;;;;;;6220511;23;20362;-87
2022/03/04 11:58:27;;;;;;;;;;;230.40;1638.40;;;;;;6220510;23;19953;-86
2022/03/04 12:00:52;;;;;;;;;;;205.60;1612.80;;;;;;6221128;23;19904;-92
2022/03/04 12:03:18;;;;;;;;;;;205.40;1638.40;;;;;;6220856;23;20316;-86
2022/03/04 12:05:45;;;;;;;;;;;205.20;1638.40;;;;;;6221306;23;19900;-87
2022/03/04 12:08:11;;;;;;;;;;;205.30;1689.60;;;;;;6222972;23;19918;-86
2022/03/04 12:10:44;;;;;;;;;;;205.20;1715.20;;;;;;6219618;23;19906;-87
2022/03/04 12:13:19;;;;;;;;;;;205.30;1689.60;;;;;;6220572;23;19945;-85
2022/03/04 12:15:48;;;;;;;;;;;205.20;1664.00;;;;;;6220377;23;19910;-86
2022/03/04 12:18:16;;;;;;;;;;;205.30;1689.60;;;;;;6220598;23;20313;-86
2022/03/04 12:20:42;;;;;;;;;;;204.90;1715.20;;;;;;6221211;23;19990;-88
2022/03/04 12:23:16;;;;;;;;;;;204.80;1792.00;;;;;;6221393;23;19906;-85
2022/03/04 12:25:51;;;;;;;;;;;180.00;1792.00;;;;;;6249687;23;19949;-89
2022/03/04 12:28:19;;;;;;;;;;;180.10;1817.60;;;;;;6220959;23;19915;-89
2022/03/04 12:30:45;;;;;;;;;;;180.10;1817.60;;;;;;6220735;23;19899;-87
2022/03/04 12:33:12;;;;;;;;;;;180.10;1868.80;;;;;;6220879;23;19900;-89
2022/03/04 12:35:37;;;;;;;;;;;180.10;1843.20;;;;;;6220691;23;19899;-88
2022/03/04 12:38:03;;;;;;;;;;;204.80;1843.20;;;;;;6220487;23;19906;-90
2022/03/04 12:40:29;;;;;;;;;;;204.80;1843.20;;;;;;6221087;23;19903;-89
2022/03/04 12:42:56;;;;;;;;;;;204.90;1792.00;;;;;;6222628;23;19899;-95
2022/03/04 12:45:22;;;;;;;;;;;205.20;1766.40;;;;;;6222484;23;19907;-89
2022/03/04 12:47:49;;;;;;;;;;;205.40;1766.40;;;;;;6220655;23;19908;-89
2022/03/04 12:50:15;;;;;;;;;;;205.60;1740.80;;;;;;6220669;23;19900;-90
2022/03/04 12:52:40;;;;;;;;;;;205.70;1740.80;;;;;;6220611;23;19907;-88
2022/03/04 12:55:10;;;;;;;;;;;230.40;1715.20;;;;;;6220756;23;19900;-89
2022/03/04 12:57:39;;;;;;;;;;;230.50;1715.20;;;;;;6220578;23;19979;-92
2022/03/04 13:00:05;;;;;;;;;;;230.40;1664.00;;;;;;6220643;23;20309;-89
2022/03/04 13:02:34;;;;;;;;;;;230.40;1689.60;;;;;;6220775;23;19906;-89
2022/03/04 13:05:00;;;;;;;;;;;205.70;1740.80;;;;;;6222279;23;20332;-89
2022/03/04 13:07:27;;;;;;;;;;;205.60;1766.40;;;;;;6222434;23;19908;-92
2022/03/04 13:09:55;;;;;;;;;;;205.60;1817.60;;;;;;6221469;23;19918;-90
2022/03/04 13:12:21;;;;;;;;;;;205.40;1766.40;;;;;;6222188;23;19906;-92
2022/03/04 13:14:47;;;;;;;;;;;205.50;1792.00;;;;;;6220514;23;19954;-91
2022/03/04 13:17:14;;;;;;;;;;;205.40;1792.00;;;;;;6224904;23;19900;-94
2022/03/04 13:19:41;;;;;;;;;;;205.40;1817.60;;;;;;6228069;23;19927;-93
2022/03/04 13:22:23;;;;;;;;;;;205.40;1817.60;;;;;;6179969;23;19903;-92
2022/03/04 13:24:56;;;;;;;;;;;205.40;1817.60;;;;;;6230035;23;19909;-96
2022/03/04 13:27:28;;;;;;;;;;;205.40;1817.60;;;;;;6231144;22;19908;-94
2022/03/04 13:29:58;;;;;;;;;;;205.40;1817.60;;;;;;6230634;23;19904;-95
2022/03/04 13:32:26;;;;;;;;;;;205.50;1817.60;;;;;;6225662;23;19935;-95
2022/03/04 13:34:55;;;;;;;;;;;205.50;1817.60;;;;;;6232505;23;19946;-95
2022/03/04 13:37:23;;;;;;;;;;;205.60;1792.00;;;;;;6231142;23;19900;-95
2022/03/04 13:40:02;;;;;;;;;;;230.40;1766.40;;;;;;6235836;23;19903;-95
2022/03/04 13:43:03;;;;;;;;;;;230.40;1817.60;;;;;;6260931;23;20428;-95
2022/03/04 13:46:07;;;;;;;;;;;230.40;1740.80;;;;;;6237902;23;19919;-95
2022/03/04 13:49:11;;;;;;;;;;;230.40;1740.80;;;;;;6258602;23;19926;-95
2022/03/04 13:52:06;;;;;;;;;;;205.70;1740.80;;;;;;6257333;23;19903;-96
2022/03/04 13:54:50;;;;;;;;;;;205.70;1766.40;;;;;;6249470;23;19900;-89
2022/03/04 13:57:31;;;;;;;;;;;205.70;1766.40;;;;;;6220682;23;19900;-89
2022/03/04 14:00:10;;;;;;;;;;;205.70;1740.80;;;;;;6219242;23;20273;-95
2022/03/04 14:02:49;;;;;;;;;;;205.60;1766.40;;;;;;6220415;23;19900;-94
2022/03/04 14:05:26;;;;;;;;;;;205.50;1792.00;;;;;;6245545;23;19903;-93
2022/03/04 14:07:59;;;;;;;;;;;205.40;1792.00;;;;;;6220324;23;19954;-93
2022/03/04 14:10:25;;;;;;;;;;;205.40;1817.60;;;;;;6247462;23;19908;-95
2022/03/04 14:12:51;;;;;;;;;;;205.30;1894.40;;;;;;6221174;23;19945;-91
2022/03/04 14:15:16;;;;;;;;;;;204.80;1996.80;;;;;;6220716;23;19907;-94
2022/03/04 14:17:49;;;;;;;;;;;180.10;1996.80;;;;;;6220890;23;19904;-93
2022/03/04 14:20:15;;;;;;;;;;;180.10;2022.40;;;;;;6220902;23;19931;-94
2022/03/04 14:22:41;;;;;;;;;;;180.10;2073.60;;;;;;6247764;23;20225;-95
2022/03/04 14:25:06;;;;;;;;;;;180.10;2099.20;;;;;;6248620;23;19899;-95
2022/03/04 14:27:32;;;;;;;;;;;180.00;2099.20;;;;;;6221330;23;19930;-93
2022/03/04 14:29:59;;;;;;;;;;;180.00;2099.20;;;;;;6221919;23;20210;-93
2022/03/04 14:32:26;;;;;;;;;;;180.10;2073.60;;;;;;6229231;23;19899;-94
2022/03/04 14:34:52;;;;;;;;;;;204.80;2048.00;;;;;;6220900;23;19900;-94
2022/03/04 14:37:17;;;;;;;;;;;204.90;2048.00;;;;;;6221417;23;19927;-93
2022/03/04 14:39:43;;;;;;;;;;;204.90;1996.80;;;;;;6221427;23;19922;-95
2022/03/04 14:42:10;;;;;;;;;;;205.00;2048.00;;;;;;6221538;23;20340;-93
2022/03/04 14:44:35;;;;;;;;;;;205.00;2073.60;;;;;;6222542;23;19900;-95
2022/03/04 14:47:01;;;;;;;;;;;205.00;2073.60;;;;;;6221712;23;19910;-95
2022/03/04 14:49:27;;;;;;;;;;;205.00;2048.00;;;;;;6220857;23;19910;-92
2022/03/04 14:51:53;;;;;;;;;;;205.00;2073.60;;;;;;6220699;23;20278;-95
2022/03/04 14:54:20;;;;;;;;;;;205.00;2073.60;;;;;;6220471;23;19903;-94
2022/03/04 14:56:45;;;;;;;;;;;205.00;2099.20;;;;;;6219095;23;19904;-95
2022/03/04 14:59:11;;;;;;;;;;;205.00;2073.60;;;;;;6219913;23;19899;-94
2022/03/04 15:01:37;;;;;;;;;;;205.00;2073.60;;;;;;6221851;23;19899;-95
2022/03/04 15:04:04;;;;;;;;;;;205.00;2073.60;;;;;;6222291;23;19900;-93
2022/03/04 15:06:29;;;;;;;;;;;204.90;2099.20;;;;;;6221729;23;19903;-94
2022/03/04 15:08:55;;;;;;;;;;;204.80;2150.40;;;;;;6207568;23;19919;-95
2022/03/04 15:11:21;;;;;;;;;;;204.80;2176.00;;;;;;6192741;23;19900;-95
2022/03/04 15:13:52;;;;;;;;;;;180.00;2201.60;;;;;;6192868;23;19904;-94
2022/03/04 15:16:18;;;;;;;;;;;180.00;2201.60;;;;;;6221417;23;19900;-95
2022/03/04 15:18:44;;;;;;;;;;;180.00;2201.60;;;;;;6168664;23;19987;-93
2022/03/04 15:21:09;;;;;;;;;;;180.10;2201.60;;;;;;6193334;23;19899;-91
2022/03/04 15:23:35;;;;;;;;;;;204.80;2176.00;;;;;;6192550;23;19900;-92
2022/03/04 15:26:01;;;;;;;;;;;180.00;2124.80;;;;;;6218735;23;19900;-91
2022/03/04 15:28:27;;;;;;;;;;;205.10;2099.20;;;;;;6217254;23;20229;-90
2022/03/04 15:30:56;;;;;;;;;;;205.00;2099.20;;;;;;6191375;23;19900;-90
2022/03/04 15:33:22;;;;;;;;;;;205.00;2124.80;;;;;;6191645;23;19903;-90
2022/03/04 15:35:48;;;;;;;;;;;204.90;2150.40;;;;;;6191428;23;19907;-90
2022/03/04 15:38:13;;;;;;;;;;;180.10;2176.00;;;;;;6191850;23;19900;-90
2022/03/04 15:40:40;;;;;;;;;;;180.10;2201.60;;;;;;6218238;23;19904;-91
2022/03/04 15:43:05;;;;;;;;;;;180.10;2227.20;;;;;;6218323;23;19899;-94
2022/03/04 15:45:31;;;;;;;;;;;180.00;2252.80;;;;;;6192152;23;20325;-92
2022/03/04 15:47:57;;;;;;;;;;;179.90;2252.80;;;;;;6192534;23;19915;-88
2022/03/04 15:50:23;;;;;;;;;;;179.90;2252.80;;;;;;6217901;23;19986;-89
2022/03/04 15:52:48;;;;;;;;;;;179.80;2252.80;;;;;;6191969;23;19914;-89
2022/03/04 15:55:14;;;;;;;;;;;179.80;2252.80;;;;;;6192072;23;19904;-88
2022/03/04 15:57:40;;;;;;;;;;;179.60;2252.80;;;;;;6191626;23;19907;-89
2022/03/04 16:00:06;;;;;;;;;;;179.50;2252.80;;;;;;6191886;23;19900;-89
2022/03/04 16:02:31;;;;;;;;;;;179.50;2252.80;;;;;;6218070;23;19900;-91
2022/03/04 16:04:57;;;;;;;;;;;179.40;2252.80;;;;;;6191611;23;19906;-89
2022/03/04 16:07:24;;;;;;;;;;;179.40;2252.80;;;;;;6191665;23;20353;-89
2022/03/04 16:09:50;;;;;;;;;;;179.30;2252.80;;;;;;6218143;23;19918;-90
2022/03/04 16:12:16;;;;;;;;;;;179.20;2252.80;;;;;;6221545;23;20301;-93
2022/03/04 16:14:42;;;;;;;;;;;179.20;2252.80;;;;;;6247951;23;20278;-88
2022/03/04 16:17:10;;;;;;;;;;;154.50;2252.80;;;;;;6221503;23;19978;-91
2022/03/04 16:19:35;;;;;;;;;;;154.50;2252.80;;;;;;6221297;23;20272;-91
2022/03/04 16:22:01;;;;;;;;;;;154.50;2252.80;;;;;;6248187;23;19906;-93
2022/03/04 16:24:26;;;;;;;;;;;154.50;2252.80;;;;;;6221363;23;19900;-91
2022/03/04 16:26:52;;;;;;;;;;;154.50;2252.80;;;;;;6221334;23;19907;-91
2022/03/04 16:29:18;;;;;;;;;;;154.50;2252.80;;;;;;6221556;23;19986;-91
2022/03/04 16:31:45;;;;;;;;;;;154.40;2252.80;;;;;;6221727;23;19907;-90
2022/03/04 16:34:10;;;;;;;;;;;154.40;2252.80;;;;;;6221798;23;19900;-88
2022/03/04 16:36:36;;;;;;;;;;;179.60;2252.80;;;;;;6221863;23;19899;-92
2022/03/04 16:39:02;;;;;;;;;;;154.40;2252.80;;;;;;6221419;23;20205;-92
2022/03/04 16:41:28;;;;;;;;;;;154.40;2252.80;;;;;;6221662;23;19900;-92
2022/03/04 16:43:53;;;;;;;;;;;154.40;2252.80;;;;;;6221512;23;19926;-93
2022/03/04 16:46:19;;;;;;;;;;;154.30;2252.80;;;;;;6221620;23;19997;-92
2022/03/04 16:48:46;;;;;;;;;;;154.30;2252.80;;;;;;6221309;23;19915;-92
2022/03/04 16:51:12;;;;;;;;;;;154.30;2252.80;;;;;;6221791;23;19900;-92
2022/03/04 16:53:39;;;;;;;;;;;154.30;2252.80;;;;;;6221305;23;19907;-94
2022/03/04 16:56:08;;;;;;;;;;;154.30;2252.80;;;;;;6221464;23;19914;-92
2022/03/04 16:58:33;;;;;;;;;;;154.30;2252.80;;;;;;6221488;23;19900;-91
2022/03/04 17:00:59;;;;;;;;;;;154.20;2252.80;;;;;;6221562;23;19911;-92
2022/03/04 17:03:25;;;;;;;;;;;154.30;2252.80;;;;;;6221504;23;20301;-92
2022/03/04 17:05:51;;;;;;;;;;;154.20;2252.80;;;;;;6221401;23;19899;-92
2022/03/04 17:08:17;;;;;;;;;;;154.20;2252.80;;;;;;6221060;23;19918;-93
2022/03/04 17:10:43;;;;;;;;;;;154.20;2252.80;;;;;;6217306;23;19910;-94
2022/03/04 17:13:09;;;;;;;;;;;154.20;2252.80;;;;;;6221172;23;19934;-91
2022/03/04 17:15:35;;;;;;;;;;;154.00;2252.80;;;;;;6221295;23;19903;-92
2022/03/04 17:18:01;;;;;;;;;;;154.10;2252.80;;;;;;6220887;23;19906;-92
2022/03/04 17:20:27;;;;;;;;;;;154.10;2252.80;;;;;;6221132;23;19900;-92
2022/03/04 17:22:52;;;;;;;;;;;154.20;2252.80;;;;;;6221014;23;19958;-92
2022/03/04 17:25:19;;;;;;;;;;;154.20;2252.80;;;;;;6195329;23;19920;-92
2022/03/04 17:27:45;;;;;;;;;;;154.20;2252.80;;;;;;6220738;23;19954;-95
2022/03/04 17:30:11;;;;;;;;;;;154.20;2252.80;;;;;;6221286;23;19899;-92
2022/03/04 17:32:37;;;;;;;;;;;153.70;2252.80;;;;;;6221027;23;19945;-92
2022/03/04 17:35:03;;;;;;;;;;;154.20;2252.80;;;;;;6221281;23;19904;-94
2022/03/04 17:37:30;;;;;;;;;;;154.20;2252.80;;;;;;6220960;23;19961;-92
2022/03/04 17:39:56;;;;;;;;;;;154.20;2252.80;;;;;;6222083;23;19899;-91
2022/03/04 17:42:22;;;;;;;;;;;154.20;2252.80;;;;;;6221484;23;20261;-93
2022/03/04 17:44:48;;;;;;;;;;;154.20;2252.80;;;;;;6220809;23;19907;-95
2022/03/04 17:47:14;;;;;;;;;;;154.30;2252.80;;;;;;6222481;23;19908;-92
2022/03/04 17:49:39;;;;;;;;;;;154.20;2252.80;;;;;;6222998;23;19904;-95
2022/03/04 17:52:05;;;;;;;;;;;154.20;2252.80;;;;;;6221568;23;19954;-94
2022/03/04 17:54:31;;;;;;;;;;;154.20;2252.80;;;;;;6221415;23;19927;-95
2022/03/04 17:56:57;;;;;;;;;;;154.20;2252.80;;;;;;6229399;23;20305;-92
2022/03/04 17:59:22;;;;;;;;;;;154.30;2252.80;;;;;;6221259;23;19899;-92
2022/03/04 18:01:50;;;;;;;;;;;154.20;2252.80;;;;;;6225351;23;19903;-95
2022/03/04 18:04:16;;;;;;;;;;;154.20;2252.80;;;;;;6226931;22;19906;-89
2022/03/04 18:07:17;;;;;;;;;;;154.20;2252.80;;;;;;6240483;22;19911;-93
2022/03/04 18:10:07;;;;;;;;;;;154.10;2252.80;;;;;;6220250;22;19900;-95
2022/03/04 18:12:32;;;;;;;;;;;154.00;2252.80;;;;;;6219969;23;19915;-94
2022/03/04 18:15:21;;;;;;;;;;;154.00;2252.80;;;;;;6209993;23;19900;-94
2022/03/04 18:17:48;;;;;;;;;;;153.90;2252.80;;;;;;6193080;23;19975;-93
2022/03/04 18:20:14;;;;;;;;;;;154.00;2252.80;;;;;;6201924;23;19959;-93
2022/03/04 18:22:40;;;;;;;;;;;153.90;2252.80;;;;;;6193456;23;19900;-93
2022/03/04 18:25:05;;;;;;;;;;;153.80;2252.80;;;;;;6190722;23;19900;-93
2022/03/04 18:27:31;;;;;;;;;;;153.80;2252.80;;;;;;6191375;23;19907;-94
2022/03/04 18:29:57;;;;;;;;;;;153.80;2252.80;;;;;;6193649;23;19900;-95
2022/03/04 18:32:27;;;;;;;;;;;153.80;2252.80;;;;;;6201181;23;19900;-94
2022/03/04 18:34:59;;;;;;;;;;;153.80;2252.80;;;;;;6183447;23;19928;-94
2022/03/04 18:37:34;;;;;;;;;;;153.70;2252.80;;;;;;6238459;23;19910;-96
2022/03/04 18:40:20;;;;;;;;;;;153.80;2252.80;;;;;;6230130;23;19951;-93
2022/03/04 18:42:58;;;;;;;;;;;153.80;2252.80;;;;;;6181732;23;19947;-93
2022/03/04 18:48:12;;;;;;;;;;;153.80;2252.80;;;;;;6224763;23;19930;-94
2022/03/04 18:50:37;;;;;;;;;;;153.80;2252.80;;;;;;6195871;23;19900;-92
2022/03/04 18:53:04;;;;;;;;;;;153.80;2252.80;;;;;;6196563;23;20289;-93
2022/03/04 18:55:29;;;;;;;;;;;153.80;2252.80;;;;;;6203671;23;19914;-93
2022/03/04 18:57:55;;;;;;;;;;;153.80;2252.80;;;;;;6211235;23;19900;-95
2022/03/04 19:00:35;;;;;;;;;;;153.80;2252.80;;;;;;6228988;22;19904;-94
2022/03/04 19:06:28;;;;;;;;;;;153.70;2252.80;;;;;;6235565;22;20373;-94
2022/03/04 19:14:59;;;;;;;;;;;128.90;2252.80;;;;;;6083983;23;20407;-89
2022/03/04 19:17:35;;;;;;;;;;;128.90;2252.80;;;;;;6075201;23;19984;-89
2022/03/04 19:20:03;;;;;;;;;;;128.90;2252.80;;;;;;6072818;23;19905;-91
2022/03/04 19:22:34;;;;;;;;;;;128.80;2252.80;;;;;;6079690;23;19908;-88
2022/03/04 19:30:51;;;;;;;;;;;128.70;2252.80;;;;;;6123906;23;19952;-93
2022/03/04 19:33:18;;;;;;;;;;;128.60;2252.80;;;;;;6123243;23;19906;-93
2022/03/04 19:38:48;;;;;;;;;;;128.50;2252.80;;;;;;6122438;23;19944;-89
2022/03/04 19:41:27;;;;;;;;;;;128.40;2252.80;;;;;;6228582;22;19916;-91
2022/03/04 19:43:54;;;;;;;;;;;103.20;2227.20;;;;;;6252936;23;19986;-91
2022/03/04 19:46:20;;;;;;;;;;;128.30;2252.80;;;;;;6223772;23;19910;-92
2022/03/04 19:48:47;;;;;;;;;;;128.30;2252.80;;;;;;6224680;23;19908;-92
2022/03/04 19:51:17;;;;;;;;;;;128.20;2252.80;;;;;;6240528;23;19895;-91
2022/03/04 19:53:50;;;;;;;;;;;128.00;2252.80;;;;;;6263447;23;19907;-91
2022/03/04 19:56:41;;;;;;;;;;;128.10;2227.20;;;;;;6263581;22;19947;-90
2022/03/04 20:03:07;;;;;;;;;;;103.30;2227.20;;;;;;6118696;23;19919;-90
2022/03/04 20:09:35;;;;;;;;;;;103.20;2227.20;;;;;;6125476;23;19908;-90
2022/03/04 20:15:24;;;;;;;;;;;103.20;2227.20;;;;;;6039475;23;19935;-94
2022/03/04 20:18:10;;;;;;;;;;;103.20;2227.20;;;;;;6010524;23;19891;-91
2022/03/04 20:26:20;;;;;;;;;;;103.20;2227.20;;;;;;6094384;23;19933;-93
2022/03/04 20:34:26;;;;;;;;;;;103.10;2227.20;;;;;;6271888;22;19904;-89
2022/03/04 20:43:16;;;;;;;;;;;103.00;2227.20;;;;;;6273150;22;19899;-93
2022/03/04 20:46:37;;;;;;;;;;;103.00;2227.20;;;;;;6151039;23;19889;-94
2022/03/04 21:01:40;;;;;;;;;;;102.80;2227.20;;;;;;6146657;23;19934;-92
2022/03/04 21:31:52;;;;;;;;;;;77.30;2227.20;;;;;;6275389;22;19895;-89
